Aeroporto :
LOGIN :

Iscrizione | Disclaimer

   EN    FR    IT 

 










Sommario :    VFR   VFR Marginale   IFR   IFR Intensivo   IFR Molto Intensivo
Visibilità : 
Base nubi : 
>= 8 km
>= 3000ft
5 / 8 km
1000 / 3000 ft
1500m / 5 km
500 / 1000 ft
800 / 1500m
200 / 500 ft
< 800m
< 200 ft
Simboli :   Temporali  Nebbia  Neve Forte  Precipitazioni Forti  Vento > 20 kt
SIGMETs :   Varie  Temporali  Ghiacco  Turbolenza  Onda orograficha  Ceneri Vulcaniche







- Altitudine del aeroporto : 49 ft
- Codice IATA : GLZ


EHGR - Gilze-Rijen Airbase

ULTIMO METAR :
  • 231025Z AUTO 10011KT 050V150 9999 OVC250 18/06 Q0998 BLU 09012KT CAVOK

METARs OBSOLETI :
  • 230955Z AUTO 09012KT 050V130 9999 OVC250 18/05 Q0999 BLU 09012KT CAVOK
  • 230927Z AUTO 09013KT 040V140 9999 OVC250 18/05 Q0999 BLU 09012KT CAVOK
  • 230855Z AUTO 08011KT 350V150 9999 OVC250 16/05 Q0999 BLU 09010KT CAVOK
  • 230825Z AUTO 08011KT 040V120 9999 OVC250 15/04 Q0999 BLU 09010KT CAVOK
  • 230755Z AUTO 08011KT 360V140 9999 OVC270 14/04 Q1000 BLU 09010KT CAVOK

TAF TAF EHGR
Valido dal 23 a 09 ore il 23 a 21 ore UTC


230814Z 2309/2321 09012G22KT CAVOK
BECMG 2316/2319 09007KT
Nessun NOTAM noto per questo aeroporto.



MetMap, La meteo Aeronautica in un colpo d'occhio ! - Copyright ORBIFLY Dicembre 2007 - Disclaimer

ORBIFLY MET'MAP TEAM :

Programmazione e sviluppo : Alexandra Zaïnal
Concezione e sviluppo : Baudouin d'Aumeries
Co-Programmazione e sviluppo : Marc-Olivier Méhu
Supporto tecnico e logistico : Manuel Goepfert
Aiuto per la traduzione : Arnaldo La Scala

Contatto : metmap@orbifly.com




FONTI E CREDITI :

   NOAA